sensor_id;sensor_type;location;lat;lon;timestamp;temperature;humidity
2967;DHT22;1493;51.496;7.210;2023-05-25T00:01:17;11.00;99.90
2967;DHT22;1493;51.496;7.210;2023-05-25T00:03:44;11.00;99.90
2967;DHT22;1493;51.496;7.210;2023-05-25T00:06:11;10.90;99.90
2967;DHT22;1493;51.496;7.210;2023-05-25T00:08:40;10.90;99.90
2967;DHT22;1493;51.496;7.210;2023-05-25T00:11:08;10.80;99.90
2967;DHT22;1493;51.496;7.210;2023-05-25T00:13:35;10.80;99.90
2967;DHT22;1493;51.496;7.210;2023-05-25T00:16:02;10.70;99.90
2967;DHT22;1493;51.496;7.210;2023-05-25T00:18:28;10.70;99.90
2967;DHT22;1493;51.496;7.210;2023-05-25T00:20:55;10.60;99.90
2967;DHT22;1493;51.496;7.210;2023-05-25T00:23:22;10.60;99.90
2967;DHT22;1493;51.496;7.210;2023-05-25T00:25:49;10.60;99.90
2967;DHT22;1493;51.496;7.210;2023-05-25T00:28:17;10.50;99.90
2967;DHT22;1493;51.496;7.210;2023-05-25T00:30:44;10.50;99.90
2967;DHT22;1493;51.496;7.210;2023-05-25T00:33:11;10.50;99.90
2967;DHT22;1493;51.496;7.210;2023-05-25T00:35:38;10.40;99.90
2967;DHT22;1493;51.496;7.210;2023-05-25T00:38:11;10.40;99.90
2967;DHT22;1493;51.496;7.210;2023-05-25T00:40:39;10.40;99.90
2967;DHT22;1493;51.496;7.210;2023-05-25T00:43:07;10.40;99.90
2967;DHT22;1493;51.496;7.210;2023-05-25T00:45:35;10.30;99.90
2967;DHT22;1493;51.496;7.210;2023-05-25T00:48:03;10.30;99.90
2967;DHT22;1493;51.496;7.210;2023-05-25T00:50:36;10.30;99.90
2967;DHT22;1493;51.496;7.210;2023-05-25T00:53:03;10.20;99.90
2967;DHT22;1493;51.496;7.210;2023-05-25T00:55:34;10.20;99.90
2967;DHT22;1493;51.496;7.210;2023-05-25T00:58:03;10.10;99.90
2967;DHT22;1493;51.496;7.210;2023-05-25T01:00:31;10.10;99.90
2967;DHT22;1493;51.496;7.210;2023-05-25T01:03:04;10.00;99.90
2967;DHT22;1493;51.496;7.210;2023-05-25T01:05:37;10.00;99.90
2967;DHT22;1493;51.496;7.210;2023-05-25T01:08:08;9.90;99.90
2967;DHT22;1493;51.496;7.210;2023-05-25T01:10:36;9.90;99.90
2967;DHT22;1493;51.496;7.210;2023-05-25T01:13:06;9.90;99.90
2967;DHT22;1493;51.496;7.210;2023-05-25T01:15:34;9.90;99.90
2967;DHT22;1493;51.496;7.210;2023-05-25T01:18:04;9.90;99.90
2967;DHT22;1493;51.496;7.210;2023-05-25T01:20:30;9.90;99.90
2967;DHT22;1493;51.496;7.210;2023-05-25T01:23:03;9.90;99.90
2967;DHT22;1493;51.496;7.210;2023-05-25T01:25:35;9.90;99.90
2967;DHT22;1493;51.496;7.210;2023-05-25T01:28:08;9.80;99.90
2967;DHT22;1493;51.496;7.210;2023-05-25T01:30:39;9.80;99.90
2967;DHT22;1493;51.496;7.210;2023-05-25T01:33:08;9.70;99.90
2967;DHT22;1493;51.496;7.210;2023-05-25T01:35:36;9.70;99.90
2967;DHT22;1493;51.496;7.210;2023-05-25T01:38:05;9.70;99.90
2967;DHT22;1493;51.496;7.210;2023-05-25T01:40:32;9.70;99.90
2967;DHT22;1493;51.496;7.210;2023-05-25T01:42:59;9.70;99.90
2967;DHT22;1493;51.496;7.210;2023-05-25T01:45:26;9.60;99.90
2967;DHT22;1493;51.496;7.210;2023-05-25T01:48:03;9.60;99.90
2967;DHT22;1493;51.496;7.210;2023-05-25T01:50:36;9.60;99.90
2967;DHT22;1493;51.496;7.210;2023-05-25T01:53:09;9.60;99.90
2967;DHT22;1493;51.496;7.210;2023-05-25T01:55:43;9.60;99.90
2967;DHT22;1493;51.496;7.210;2023-05-25T01:58:13;9.50;99.90
2967;DHT22;1493;51.496;7.210;2023-05-25T02:00:41;9.60;99.90
2967;DHT22;1493;51.496;7.210;2023-05-25T02:03:09;9.60;99.90
2967;DHT22;1493;51.496;7.210;2023-05-25T02:05:37;9.60;99.90
2967;DHT22;1493;51.496;7.210;2023-05-25T02:08:08;9.60;99.90
2967;DHT22;1493;51.496;7.210;2023-05-25T02:10:35;9.60;99.90
2967;DHT22;1493;51.496;7.210;2023-05-25T02:13:01;9.60;99.90
2967;DHT22;1493;51.496;7.210;2023-05-25T02:15:31;9.60;99.90
2967;DHT22;1493;51.496;7.210;2023-05-25T02:17:58;9.60;99.90
2967;DHT22;1493;51.496;7.210;2023-05-25T02:20:25;9.60;99.90
2967;DHT22;1493;51.496;7.210;2023-05-25T02:22:52;9.50;99.90
2967;DHT22;1493;51.496;7.210;2023-05-25T02:25:20;9.50;99.90
2967;DHT22;1493;51.496;7.210;2023-05-25T02:27:47;9.50;99.90
2967;DHT22;1493;51.496;7.210;2023-05-25T02:30:14;9.50;99.90
2967;DHT22;1493;51.496;7.210;2023-05-25T02:32:41;9.50;99.90
2967;DHT22;1493;51.496;7.210;2023-05-25T02:35:08;9.50;99.90
2967;DHT22;1493;51.496;7.210;2023-05-25T02:37:35;9.40;99.90
2967;DHT22;1493;51.496;7.210;2023-05-25T02:40:03;9.40;99.90
2967;DHT22;1493;51.496;7.210;2023-05-25T02:42:32;9.40;99.90
2967;DHT22;1493;51.496;7.210;2023-05-25T02:44:58;9.40;99.90
2967;DHT22;1493;51.496;7.210;2023-05-25T02:47:25;9.40;99.90
2967;DHT22;1493;51.496;7.210;2023-05-25T02:49:52;9.30;99.90
2967;DHT22;1493;51.496;7.210;2023-05-25T02:52:19;9.30;99.90
2967;DHT22;1493;51.496;7.210;2023-05-25T02:54:47;9.30;99.90
2967;DHT22;1493;51.496;7.210;2023-05-25T02:57:13;9.30;99.90
2967;DHT22;1493;51.496;7.210;2023-05-25T02:59:42;9.30;99.90
2967;DHT22;1493;51.496;7.210;2023-05-25T03:02:08;9.20;99.90
2967;DHT22;1493;51.496;7.210;2023-05-25T03:04:36;9.20;99.90
2967;DHT22;1493;51.496;7.210;2023-05-25T03:07:04;9.20;99.90
2967;DHT22;1493;51.496;7.210;2023-05-25T03:09:31;9.20;99.90
2967;DHT22;1493;51.496;7.210;2023-05-25T03:11:57;9.20;99.90
2967;DHT22;1493;51.496;7.210;2023-05-25T03:14:24;9.10;99.90
2967;DHT22;1493;51.496;7.210;2023-05-25T03:16:52;9.10;99.90
2967;DHT22;1493;51.496;7.210;2023-05-25T03:19:19;9.10;99.90
2967;DHT22;1493;51.496;7.210;2023-05-25T03:21:46;9.20;99.90
2967;DHT22;1493;51.496;7.210;2023-05-25T03:24:13;9.10;99.90
2967;DHT22;1493;51.496;7.210;2023-05-25T03:26:39;9.10;99.90
2967;DHT22;1493;51.496;7.210;2023-05-25T03:29:06;9.10;99.90
2967;DHT22;1493;51.496;7.210;2023-05-25T03:31:33;9.10;99.90
2967;DHT22;1493;51.496;7.210;2023-05-25T03:34:01;9.10;99.90
2967;DHT22;1493;51.496;7.210;2023-05-25T03:36:28;9.10;99.90
2967;DHT22;1493;51.496;7.210;2023-05-25T03:38:57;9.10;99.90
2967;DHT22;1493;51.496;7.210;2023-05-25T03:41:25;9.10;99.90
2967;DHT22;1493;51.496;7.210;2023-05-25T03:43:52;9.10;99.90
2967;DHT22;1493;51.496;7.210;2023-05-25T03:46:19;9.10;99.90
2967;DHT22;1493;51.496;7.210;2023-05-25T03:48:46;9.10;99.90
2967;DHT22;1493;51.496;7.210;2023-05-25T03:51:14;9.10;99.90
2967;DHT22;1493;51.496;7.210;2023-05-25T03:53:40;9.10;99.90
2967;DHT22;1493;51.496;7.210;2023-05-25T03:56:07;9.10;99.90
2967;DHT22;1493;51.496;7.210;2023-05-25T03:58:34;9.10;99.90
2967;DHT22;1493;51.496;7.210;2023-05-25T04:01:01;9.10;99.90
2967;DHT22;1493;51.496;7.210;2023-05-25T04:03:28;9.20;99.90
2967;DHT22;1493;51.496;7.210;2023-05-25T04:05:57;9.20;99.90
2967;DHT22;1493;51.496;7.210;2023-05-25T04:08:27;9.20;99.90
2967;DHT22;1493;51.496;7.210;2023-05-25T04:10:54;9.20;99.90
2967;DHT22;1493;51.496;7.210;2023-05-25T04:13:21;9.30;99.90
2967;DHT22;1493;51.496;7.210;2023-05-25T04:15:48;9.30;99.90
2967;DHT22;1493;51.496;7.210;2023-05-25T04:18:15;9.40;99.90
2967;DHT22;1493;51.496;7.210;2023-05-25T04:20:45;9.40;99.90
2967;DHT22;1493;51.496;7.210;2023-05-25T04:23:12;9.40;99.90
2967;DHT22;1493;51.496;7.210;2023-05-25T04:25:40;9.40;99.90
2967;DHT22;1493;51.496;7.210;2023-05-25T04:28:07;9.50;99.90
2967;DHT22;1493;51.496;7.210;2023-05-25T04:30:36;9.50;99.90
2967;DHT22;1493;51.496;7.210;2023-05-25T04:33:04;9.60;99.90
2967;DHT22;1493;51.496;7.210;2023-05-25T04:35:31;9.60;99.90
2967;DHT22;1493;51.496;7.210;2023-05-25T04:37:57;9.70;99.90
2967;DHT22;1493;51.496;7.210;2023-05-25T04:40:27;9.70;99.90
2967;DHT22;1493;51.496;7.210;2023-05-25T04:42:55;9.70;99.90
2967;DHT22;1493;51.496;7.210;2023-05-25T04:45:22;9.80;99.90
2967;DHT22;1493;51.496;7.210;2023-05-25T04:47:49;9.80;99.90
2967;DHT22;1493;51.496;7.210;2023-05-25T04:50:17;9.90;99.90
2967;DHT22;1493;51.496;7.210;2023-05-25T04:52:43;9.90;99.90
2967;DHT22;1493;51.496;7.210;2023-05-25T04:55:10;10.00;99.90
2967;DHT22;1493;51.496;7.210;2023-05-25T04:57:37;10.10;99.90
2967;DHT22;1493;51.496;7.210;2023-05-25T05:00:09;10.10;99.90
2967;DHT22;1493;51.496;7.210;2023-05-25T05:02:39;10.20;99.90
2967;DHT22;1493;51.496;7.210;2023-05-25T05:05:07;10.20;99.90
2967;DHT22;1493;51.496;7.210;2023-05-25T05:07:34;10.30;99.90
2967;DHT22;1493;51.496;7.210;2023-05-25T05:10:01;10.40;99.90
2967;DHT22;1493;51.496;7.210;2023-05-25T05:12:28;10.40;99.90
2967;DHT22;1493;51.496;7.210;2023-05-25T05:14:56;10.50;99.90
2967;DHT22;1493;51.496;7.210;2023-05-25T05:17:24;10.50;99.90
2967;DHT22;1493;51.496;7.210;2023-05-25T05:19:52;10.60;99.90
2967;DHT22;1493;51.496;7.210;2023-05-25T05:22:25;10.60;99.90
2967;DHT22;1493;51.496;7.210;2023-05-25T05:24:52;10.70;99.90
2967;DHT22;1493;51.496;7.210;2023-05-25T05:27:19;10.90;99.90
2967;DHT22;1493;51.496;7.210;2023-05-25T05:29:45;11.00;99.90
2967;DHT22;1493;51.496;7.210;2023-05-25T05:32:12;11.20;99.90
2967;DHT22;1493;51.496;7.210;2023-05-25T05:34:40;11.40;99.90
2967;DHT22;1493;51.496;7.210;2023-05-25T05:37:07;11.60;99.90
2967;DHT22;1493;51.496;7.210;2023-05-25T05:39:37;11.80;99.90
2967;DHT22;1493;51.496;7.210;2023-05-25T05:42:04;11.90;99.90
2967;DHT22;1493;51.496;7.210;2023-05-25T05:44:32;12.00;99.90
2967;DHT22;1493;51.496;7.210;2023-05-25T05:46:59;12.10;95.50
2967;DHT22;1493;51.496;7.210;2023-05-25T05:49:26;12.00;92.80
2967;DHT22;1493;51.496;7.210;2023-05-25T05:51:54;12.00;99.90
2967;DHT22;1493;51.496;7.210;2023-05-25T05:54:21;12.00;99.90
2967;DHT22;1493;51.496;7.210;2023-05-25T05:56:48;12.00;99.90
2967;DHT22;1493;51.496;7.210;2023-05-25T05:59:15;12.00;84.40
2967;DHT22;1493;51.496;7.210;2023-05-25T06:01:42;11.90;70.30
2967;DHT22;1493;51.496;7.210;2023-05-25T06:04:08;11.90;98.40
2967;DHT22;1493;51.496;7.210;2023-05-25T06:06:35;11.90;99.90
2967;DHT22;1493;51.496;7.210;2023-05-25T06:09:06;11.90;99.90
2967;DHT22;1493;51.496;7.210;2023-05-25T06:11:33;11.90;99.90
2967;DHT22;1493;51.496;7.210;2023-05-25T06:14:01;11.90;99.90
2967;DHT22;1493;51.496;7.210;2023-05-25T06:16:28;12.00;99.90
2967;DHT22;1493;51.496;7.210;2023-05-25T06:18:55;12.00;99.90
2967;DHT22;1493;51.496;7.210;2023-05-25T06:21:22;12.00;99.90
2967;DHT22;1493;51.496;7.210;2023-05-25T06:23:49;12.10;99.90
2967;DHT22;1493;51.496;7.210;2023-05-25T06:26:17;12.10;99.90
2967;DHT22;1493;51.496;7.210;2023-05-25T06:28:44;12.20;99.90
2967;DHT22;1493;51.496;7.210;2023-05-25T06:31:12;12.20;98.40
2967;DHT22;1493;51.496;7.210;2023-05-25T06:33:38;12.30;97.20
2967;DHT22;1493;51.496;7.210;2023-05-25T06:36:06;12.40;99.90
2967;DHT22;1493;51.496;7.210;2023-05-25T06:38:33;12.40;94.40
2967;DHT22;1493;51.496;7.210;2023-05-25T06:40:59;12.50;99.90
2967;DHT22;1493;51.496;7.210;2023-05-25T06:43:29;12.50;94.10
2967;DHT22;1493;51.496;7.210;2023-05-25T06:45:56;12.60;50.20
2967;DHT22;1493;51.496;7.210;2023-05-25T06:48:23;12.70;51.00
2967;DHT22;1493;51.496;7.210;2023-05-25T06:50:50;12.80;28.60
2967;DHT22;1493;51.496;7.210;2023-05-25T06:53:17;13.00;32.70
2967;DHT22;1493;51.496;7.210;2023-05-25T06:55:44;13.10;1.00
2967;DHT22;1493;51.496;7.210;2023-05-25T06:58:10;13.20;7.80
2967;DHT22;1493;51.496;7.210;2023-05-25T07:00:39;13.40;10.20
2967;DHT22;1493;51.496;7.210;2023-05-25T07:03:05;13.60;1.00
2967;DHT22;1493;51.496;7.210;2023-05-25T07:05:32;13.70;1.00
2967;DHT22;1493;51.496;7.210;2023-05-25T07:07:59;13.70;1.00
2967;DHT22;1493;51.496;7.210;2023-05-25T07:10:26;13.90;1.00
2967;DHT22;1493;51.496;7.210;2023-05-25T07:12:53;14.00;1.00
2967;DHT22;1493;51.496;7.210;2023-05-25T07:15:19;14.20;1.00
2967;DHT22;1493;51.496;7.210;2023-05-25T07:17:48;14.30;1.00
2967;DHT22;1493;51.496;7.210;2023-05-25T07:20:15;14.60;1.00
2967;DHT22;1493;51.496;7.210;2023-05-25T07:22:42;14.80;1.00
2967;DHT22;1493;51.496;7.210;2023-05-25T07:25:09;15.00;1.00
2967;DHT22;1493;51.496;7.210;2023-05-25T07:27:36;15.20;1.00
2967;DHT22;1493;51.496;7.210;2023-05-25T07:30:08;15.40;99.90
2967;DHT22;1493;51.496;7.210;2023-05-25T07:32:35;15.70;99.90
2967;DHT22;1493;51.496;7.210;2023-05-25T07:35:10;15.90;1.00
2967;DHT22;1493;51.496;7.210;2023-05-25T07:37:37;16.00;1.00
2967;DHT22;1493;51.496;7.210;2023-05-25T07:40:05;15.90;99.90
2967;DHT22;1493;51.496;7.210;2023-05-25T07:42:32;15.80;1.00
2967;DHT22;1493;51.496;7.210;2023-05-25T07:45:00;15.60;1.00
2967;DHT22;1493;51.496;7.210;2023-05-25T07:47:27;15.60;99.90
2967;DHT22;1493;51.496;7.210;2023-05-25T07:49:53;15.60;99.90
2967;DHT22;1493;51.496;7.210;2023-05-25T07:52:21;15.70;99.90
2967;DHT22;1493;51.496;7.210;2023-05-25T07:54:48;15.90;29.40
2967;DHT22;1493;51.496;7.210;2023-05-25T07:57:15;16.20;99.90
2967;DHT22;1493;51.496;7.210;2023-05-25T07:59:42;16.50;99.90
2967;DHT22;1493;51.496;7.210;2023-05-25T08:02:09;16.70;1.00
2967;DHT22;1493;51.496;7.210;2023-05-25T08:04:36;17.00;1.00
2967;DHT22;1493;51.496;7.210;2023-05-25T08:07:03;17.10;20.60
2967;DHT22;1493;51.496;7.210;2023-05-25T08:09:31;17.20;99.90
2967;DHT22;1493;51.496;7.210;2023-05-25T08:11:58;17.30;99.90
2967;DHT22;1493;51.496;7.210;2023-05-25T08:14:26;17.30;99.90
2967;DHT22;1493;51.496;7.210;2023-05-25T08:16:53;17.40;99.90
2967;DHT22;1493;51.496;7.210;2023-05-25T08:19:19;17.50;1.00
2967;DHT22;1493;51.496;7.210;2023-05-25T08:21:46;17.40;9.30
2967;DHT22;1493;51.496;7.210;2023-05-25T08:24:13;17.40;99.90
2967;DHT22;1493;51.496;7.210;2023-05-25T08:26:41;17.40;99.90
2967;DHT22;1493;51.496;7.210;2023-05-25T08:29:08;17.40;1.00
2967;DHT22;1493;51.496;7.210;2023-05-25T08:31:35;17.40;99.90
2967;DHT22;1493;51.496;7.210;2023-05-25T08:34:02;17.50;1.00
2967;DHT22;1493;51.496;7.210;2023-05-25T08:36:28;17.60;1.00
2967;DHT22;1493;51.496;7.210;2023-05-25T08:38:58;17.70;1.00
2967;DHT22;1493;51.496;7.210;2023-05-25T08:41:25;17.70;1.00
2967;DHT22;1493;51.496;7.210;2023-05-25T08:43:53;17.80;1.00
2967;DHT22;1493;51.496;7.210;2023-05-25T08:46:27;17.80;1.00
2967;DHT22;1493;51.496;7.210;2023-05-25T08:48:57;17.80;1.00
2967;DHT22;1493;51.496;7.210;2023-05-25T08:51:27;17.90;1.00
2967;DHT22;1493;51.496;7.210;2023-05-25T08:53:58;17.80;1.00
2967;DHT22;1493;51.496;7.210;2023-05-25T08:56:31;17.90;1.00
2967;DHT22;1493;51.496;7.210;2023-05-25T08:59:04;17.90;1.00
2967;DHT22;1493;51.496;7.210;2023-05-25T09:01:37;18.00;1.00
2967;DHT22;1493;51.496;7.210;2023-05-25T09:04:05;18.00;1.00
2967;DHT22;1493;51.496;7.210;2023-05-25T09:06:32;18.10;1.00
2967;DHT22;1493;51.496;7.210;2023-05-25T09:09:03;18.20;1.00
2967;DHT22;1493;51.496;7.210;2023-05-25T09:11:31;18.20;1.00
2967;DHT22;1493;51.496;7.210;2023-05-25T09:13:58;18.30;1.00
2967;DHT22;1493;51.496;7.210;2023-05-25T09:16:26;18.20;1.00
2967;DHT22;1493;51.496;7.210;2023-05-25T09:18:53;18.20;1.00
2967;DHT22;1493;51.496;7.210;2023-05-25T09:21:20;18.10;1.00
2967;DHT22;1493;51.496;7.210;2023-05-25T09:23:48;18.20;1.00
2967;DHT22;1493;51.496;7.210;2023-05-25T09:26:15;18.40;1.00
2967;DHT22;1493;51.496;7.210;2023-05-25T09:28:44;18.50;1.00
2967;DHT22;1493;51.496;7.210;2023-05-25T09:31:12;18.70;1.00
2967;DHT22;1493;51.496;7.210;2023-05-25T09:33:42;18.60;1.00
2967;DHT22;1493;51.496;7.210;2023-05-25T09:36:11;18.50;1.00
2967;DHT22;1493;51.496;7.210;2023-05-25T09:38:41;18.40;1.00
2967;DHT22;1493;51.496;7.210;2023-05-25T09:41:08;18.20;1.00
2967;DHT22;1493;51.496;7.210;2023-05-25T09:43:36;17.90;1.00
2967;DHT22;1493;51.496;7.210;2023-05-25T09:46:03;17.90;1.00
2967;DHT22;1493;51.496;7.210;2023-05-25T09:48:30;17.90;1.00
2967;DHT22;1493;51.496;7.210;2023-05-25T09:50:58;17.80;1.00
2967;DHT22;1493;51.496;7.210;2023-05-25T09:53:26;17.60;1.00
2967;DHT22;1493;51.496;7.210;2023-05-25T09:55:53;17.50;1.00
2967;DHT22;1493;51.496;7.210;2023-05-25T09:58:21;17.60;1.00
2967;DHT22;1493;51.496;7.210;2023-05-25T10:00:52;17.50;1.00
2967;DHT22;1493;51.496;7.210;2023-05-25T10:03:19;17.40;1.00
2967;DHT22;1493;51.496;7.210;2023-05-25T10:05:47;17.50;1.00
2967;DHT22;1493;51.496;7.210;2023-05-25T10:08:16;17.60;1.00
2967;DHT22;1493;51.496;7.210;2023-05-25T10:10:47;17.80;1.00
2967;DHT22;1493;51.496;7.210;2023-05-25T10:13:19;17.90;1.00
2967;DHT22;1493;51.496;7.210;2023-05-25T10:15:52;17.90;1.00
2967;DHT22;1493;51.496;7.210;2023-05-25T10:18:23;18.00;1.00
2967;DHT22;1493;51.496;7.210;2023-05-25T10:20:55;18.00;1.00
2967;DHT22;1493;51.496;7.210;2023-05-25T10:23:26;17.90;1.00
2967;DHT22;1493;51.496;7.210;2023-05-25T10:25:58;18.00;1.00
2967;DHT22;1493;51.496;7.210;2023-05-25T10:28:28;18.00;1.00
2967;DHT22;1493;51.496;7.210;2023-05-25T10:30:56;17.90;1.00
2967;DHT22;1493;51.496;7.210;2023-05-25T10:33:23;17.90;1.00
2967;DHT22;1493;51.496;7.210;2023-05-25T10:35:50;18.20;1.00
2967;DHT22;1493;51.496;7.210;2023-05-25T10:38:17;18.30;1.00
2967;DHT22;1493;51.496;7.210;2023-05-25T10:40:46;18.40;1.00
2967;DHT22;1493;51.496;7.210;2023-05-25T10:43:13;18.30;1.00
2967;DHT22;1493;51.496;7.210;2023-05-25T10:45:42;18.50;1.00
2967;DHT22;1493;51.496;7.210;2023-05-25T10:48:12;18.70;1.00
2967;DHT22;1493;51.496;7.210;2023-05-25T10:50:39;19.00;1.00
2967;DHT22;1493;51.496;7.210;2023-05-25T10:53:07;19.10;1.00
2967;DHT22;1493;51.496;7.210;2023-05-25T10:56:00;20.10;1.00
2967;DHT22;1493;51.496;7.210;2023-05-25T10:58:28;21.60;1.00
2967;DHT22;1493;51.496;7.210;2023-05-25T11:00:59;22.60;1.00
2967;DHT22;1493;51.496;7.210;2023-05-25T11:03:54;22.30;1.00
2967;DHT22;1493;51.496;7.210;2023-05-25T11:09:05;21.70;99.90
2967;DHT22;1493;51.496;7.210;2023-05-25T11:12:01;21.40;99.90
2967;DHT22;1493;51.496;7.210;2023-05-25T11:14:29;21.00;99.90
2967;DHT22;1493;51.496;7.210;2023-05-25T11:17:06;20.50;99.90
2967;DHT22;1493;51.496;7.210;2023-05-25T11:19:45;20.00;99.90
2967;DHT22;1493;51.496;7.210;2023-05-25T11:22:13;19.70;99.90
2967;DHT22;1493;51.496;7.210;2023-05-25T11:24:41;19.60;99.90
2967;DHT22;1493;51.496;7.210;2023-05-25T11:27:11;19.50;99.90
2967;DHT22;1493;51.496;7.210;2023-05-25T11:29:38;19.40;1.00
2967;DHT22;1493;51.496;7.210;2023-05-25T11:32:11;19.60;1.00
2967;DHT22;1493;51.496;7.210;2023-05-25T11:34:38;20.00;1.00
2967;DHT22;1493;51.496;7.210;2023-05-25T11:37:11;20.00;1.00
2967;DHT22;1493;51.496;7.210;2023-05-25T11:39:40;19.80;1.00
2967;DHT22;1493;51.496;7.210;2023-05-25T11:42:09;19.70;1.00
2967;DHT22;1493;51.496;7.210;2023-05-25T11:44:36;19.50;1.00
2967;DHT22;1493;51.496;7.210;2023-05-25T11:47:05;19.30;1.00
2967;DHT22;1493;51.496;7.210;2023-05-25T11:49:37;19.20;1.00
2967;DHT22;1493;51.496;7.210;2023-05-25T11:52:06;19.40;1.00
2967;DHT22;1493;51.496;7.210;2023-05-25T11:54:33;19.50;1.00
2967;DHT22;1493;51.496;7.210;2023-05-25T11:57:00;19.60;1.00
2967;DHT22;1493;51.496;7.210;2023-05-25T11:59:29;19.80;1.00
2967;DHT22;1493;51.496;7.210;2023-05-25T12:01:57;20.00;1.00
2967;DHT22;1493;51.496;7.210;2023-05-25T12:04:25;20.00;1.00
2967;DHT22;1493;51.496;7.210;2023-05-25T12:06:52;19.90;1.00
2967;DHT22;1493;51.496;7.210;2023-05-25T12:09:19;19.70;1.00
2967;DHT22;1493;51.496;7.210;2023-05-25T12:11:47;19.50;1.00
2967;DHT22;1493;51.496;7.210;2023-05-25T12:14:14;19.20;1.00
2967;DHT22;1493;51.496;7.210;2023-05-25T12:16:43;19.10;1.00
2967;DHT22;1493;51.496;7.210;2023-05-25T12:19:10;19.10;1.00
2967;DHT22;1493;51.496;7.210;2023-05-25T12:21:38;19.20;1.00
2967;DHT22;1493;51.496;7.210;2023-05-25T12:24:06;19.40;1.00
2967;DHT22;1493;51.496;7.210;2023-05-25T12:26:33;19.60;1.00
2967;DHT22;1493;51.496;7.210;2023-05-25T12:29:01;19.60;1.00
2967;DHT22;1493;51.496;7.210;2023-05-25T12:31:31;19.60;1.00
2967;DHT22;1493;51.496;7.210;2023-05-25T12:34:18;19.40;1.00
2967;DHT22;1493;51.496;7.210;2023-05-25T12:36:48;19.50;1.00
2967;DHT22;1493;51.496;7.210;2023-05-25T12:39:32;19.80;1.00
2967;DHT22;1493;51.496;7.210;2023-05-25T12:42:03;20.10;1.00
2967;DHT22;1493;51.496;7.210;2023-05-25T12:44:33;20.50;1.00
2967;DHT22;1493;51.496;7.210;2023-05-25T12:47:12;20.50;1.00
2967;DHT22;1493;51.496;7.210;2023-05-25T12:49:42;20.20;1.00
2967;DHT22;1493;51.496;7.210;2023-05-25T12:52:10;20.10;1.00
2967;DHT22;1493;51.496;7.210;2023-05-25T12:54:41;20.10;1.00
2967;DHT22;1493;51.496;7.210;2023-05-25T12:57:11;20.00;1.00
2967;DHT22;1493;51.496;7.210;2023-05-25T12:59:39;21.10;1.00
2967;DHT22;1493;51.496;7.210;2023-05-25T13:02:07;24.60;1.00
2967;DHT22;1493;51.496;7.210;2023-05-25T13:04:34;28.00;99.90
2967;DHT22;1493;51.496;7.210;2023-05-25T13:07:03;30.30;99.90
2967;DHT22;1493;51.496;7.210;2023-05-25T13:09:30;32.00;99.90
2967;DHT22;1493;51.496;7.210;2023-05-25T13:11:58;32.60;99.90
2967;DHT22;1493;51.496;7.210;2023-05-25T13:14:30;31.50;99.90
2967;DHT22;1493;51.496;7.210;2023-05-25T13:16:57;31.10;99.90
2967;DHT22;1493;51.496;7.210;2023-05-25T13:19:28;29.60;99.90
2967;DHT22;1493;51.496;7.210;2023-05-25T13:21:55;28.00;99.90
2967;DHT22;1493;51.496;7.210;2023-05-25T13:24:25;27.80;99.90
2967;DHT22;1493;51.496;7.210;2023-05-25T13:26:52;29.40;99.90
2967;DHT22;1493;51.496;7.210;2023-05-25T13:29:26;30.70;99.90
2967;DHT22;1493;51.496;7.210;2023-05-25T13:31:55;32.40;99.90
2967;DHT22;1493;51.496;7.210;2023-05-25T13:34:21;33.50;99.90
2967;DHT22;1493;51.496;7.210;2023-05-25T13:36:48;34.30;99.90
2967;DHT22;1493;51.496;7.210;2023-05-25T13:39:15;32.30;99.90
2967;DHT22;1493;51.496;7.210;2023-05-25T13:41:44;31.10;99.90
2967;DHT22;1493;51.496;7.210;2023-05-25T13:44:11;30.50;99.90
2967;DHT22;1493;51.496;7.210;2023-05-25T13:46:38;30.60;99.90
2967;DHT22;1493;51.496;7.210;2023-05-25T13:49:05;31.60;99.90
2967;DHT22;1493;51.496;7.210;2023-05-25T13:51:32;32.00;99.90
2967;DHT22;1493;51.496;7.210;2023-05-25T13:54:00;32.80;99.90
2967;DHT22;1493;51.496;7.210;2023-05-25T13:56:27;33.50;99.90
2967;DHT22;1493;51.496;7.210;2023-05-25T13:58:55;33.50;99.90
2967;DHT22;1493;51.496;7.210;2023-05-25T14:01:24;34.40;99.90
2967;DHT22;1493;51.496;7.210;2023-05-25T14:03:51;35.10;99.90
2967;DHT22;1493;51.496;7.210;2023-05-25T14:06:19;34.10;99.90
2967;DHT22;1493;51.496;7.210;2023-05-25T14:08:46;33.90;99.90
2967;DHT22;1493;51.496;7.210;2023-05-25T14:11:12;33.70;99.90
2967;DHT22;1493;51.496;7.210;2023-05-25T14:13:39;33.10;99.90
2967;DHT22;1493;51.496;7.210;2023-05-25T14:16:08;32.60;99.90
2967;DHT22;1493;51.496;7.210;2023-05-25T14:18:34;32.90;99.90
2967;DHT22;1493;51.496;7.210;2023-05-25T14:21:01;33.20;99.90
2967;DHT22;1493;51.496;7.210;2023-05-25T14:23:28;33.30;99.90
2967;DHT22;1493;51.496;7.210;2023-05-25T14:25:55;34.00;99.90
2967;DHT22;1493;51.496;7.210;2023-05-25T14:28:22;34.70;99.90
2967;DHT22;1493;51.496;7.210;2023-05-25T14:30:49;35.00;99.90
2967;DHT22;1493;51.496;7.210;2023-05-25T14:33:19;35.00;99.90
2967;DHT22;1493;51.496;7.210;2023-05-25T14:35:46;35.80;99.90
2967;DHT22;1493;51.496;7.210;2023-05-25T14:38:13;35.80;99.90
2967;DHT22;1493;51.496;7.210;2023-05-25T14:40:40;36.40;99.90
2967;DHT22;1493;51.496;7.210;2023-05-25T14:43:07;36.10;99.90
2967;DHT22;1493;51.496;7.210;2023-05-25T14:45:34;34.00;99.90
2967;DHT22;1493;51.496;7.210;2023-05-25T14:48:01;31.80;99.90
2967;DHT22;1493;51.496;7.210;2023-05-25T14:50:29;30.20;99.90
2967;DHT22;1493;51.496;7.210;2023-05-25T14:52:56;30.70;99.90
2967;DHT22;1493;51.496;7.210;2023-05-25T14:55:23;31.80;99.90
2967;DHT22;1493;51.496;7.210;2023-05-25T14:57:50;32.10;99.90
2967;DHT22;1493;51.496;7.210;2023-05-25T15:00:17;33.20;99.90
2967;DHT22;1493;51.496;7.210;2023-05-25T15:02:44;33.70;99.90
2967;DHT22;1493;51.496;7.210;2023-05-25T15:05:11;33.30;99.90
2967;DHT22;1493;51.496;7.210;2023-05-25T15:07:39;32.80;99.90
2967;DHT22;1493;51.496;7.210;2023-05-25T15:10:07;32.30;99.90
2967;DHT22;1493;51.496;7.210;2023-05-25T15:12:34;31.00;99.90
2967;DHT22;1493;51.496;7.210;2023-05-25T15:15:01;29.50;99.90
2967;DHT22;1493;51.496;7.210;2023-05-25T15:17:28;28.40;99.90
2967;DHT22;1493;51.496;7.210;2023-05-25T15:19:55;29.00;99.90
2967;DHT22;1493;51.496;7.210;2023-05-25T15:22:21;29.90;99.90
2967;DHT22;1493;51.496;7.210;2023-05-25T15:24:50;30.80;99.90
2967;DHT22;1493;51.496;7.210;2023-05-25T15:27:16;31.20;99.90
2967;DHT22;1493;51.496;7.210;2023-05-25T15:29:43;31.20;99.90
2967;DHT22;1493;51.496;7.210;2023-05-25T15:32:11;29.30;99.90
2967;DHT22;1493;51.496;7.210;2023-05-25T15:34:39;28.00;99.90
2967;DHT22;1493;51.496;7.210;2023-05-25T15:37:06;28.00;99.90
2967;DHT22;1493;51.496;7.210;2023-05-25T15:39:33;28.90;99.90
2967;DHT22;1493;51.496;7.210;2023-05-25T15:42:01;28.70;99.90
2967;DHT22;1493;51.496;7.210;2023-05-25T15:44:28;27.40;99.90
2967;DHT22;1493;51.496;7.210;2023-05-25T15:46:55;26.30;99.90
2967;DHT22;1493;51.496;7.210;2023-05-25T15:49:22;25.60;99.90
2967;DHT22;1493;51.496;7.210;2023-05-25T15:51:49;26.10;99.90
2967;DHT22;1493;51.496;7.210;2023-05-25T15:54:17;27.20;99.90
2967;DHT22;1493;51.496;7.210;2023-05-25T15:56:44;28.00;99.90
2967;DHT22;1493;51.496;7.210;2023-05-25T15:59:13;28.60;99.90
2967;DHT22;1493;51.496;7.210;2023-05-25T16:01:40;28.80;99.90
2967;DHT22;1493;51.496;7.210;2023-05-25T16:04:06;28.50;99.90
2967;DHT22;1493;51.496;7.210;2023-05-25T16:06:33;27.80;99.90
2967;DHT22;1493;51.496;7.210;2023-05-25T16:09:00;27.00;99.90
2967;DHT22;1493;51.496;7.210;2023-05-25T16:11:28;25.90;99.90
2967;DHT22;1493;51.496;7.210;2023-05-25T16:13:57;25.00;99.90
2967;DHT22;1493;51.496;7.210;2023-05-25T16:16:25;23.90;99.90
2967;DHT22;1493;51.496;7.210;2023-05-25T16:18:52;23.50;99.90